sensor_id;sensor_type;location;lat;lon;timestamp;pressure;altitude;pressure_sealevel;temperature;humidity
79671;BME280;69137;50.878;8.050;2023-08-06T00:01:26;97381.53;;;14.07;88.07
79671;BME280;69137;50.878;8.050;2023-08-06T00:03:51;97378.84;;;13.93;88.58
79671;BME280;69137;50.878;8.050;2023-08-06T00:06:17;97371.44;;;13.93;88.72
79671;BME280;69137;50.878;8.050;2023-08-06T00:08:42;97372.09;;;13.99;87.85
79671;BME280;69137;50.878;8.050;2023-08-06T00:11:08;97374.22;;;13.80;89.29
79671;BME280;69137;50.878;8.050;2023-08-06T00:13:33;97370.94;;;13.91;88.46
79671;BME280;69137;50.878;8.050;2023-08-06T00:16:12;97363.31;;;13.88;88.67
79671;BME280;69137;50.878;8.050;2023-08-06T00:18:38;97367.38;;;13.91;88.62
79671;BME280;69137;50.878;8.050;2023-08-06T00:21:03;97364.31;;;13.92;88.07
79671;BME280;69137;50.878;8.050;2023-08-06T00:23:29;97356.53;;;13.86;88.18
79671;BME280;69137;50.878;8.050;2023-08-06T00:25:54;97362.06;;;13.94;88.02
79671;BME280;69137;50.878;8.050;2023-08-06T00:28:19;97350.91;;;13.91;87.76
79671;BME280;69137;50.878;8.050;2023-08-06T00:30:45;97349.50;;;13.80;88.04
79671;BME280;69137;50.878;8.050;2023-08-06T00:33:10;97343.25;;;13.88;87.74
79671;BME280;69137;50.878;8.050;2023-08-06T00:35:36;97350.03;;;13.82;88.13
79671;BME280;69137;50.878;8.050;2023-08-06T00:38:01;97342.28;;;13.84;87.80
79671;BME280;69137;50.878;8.050;2023-08-06T00:40:26;97337.72;;;13.79;88.23
79671;BME280;69137;50.878;8.050;2023-08-06T00:42:54;97344.09;;;13.88;88.12
79671;BME280;69137;50.878;8.050;2023-08-06T00:45:19;97336.47;;;13.85;88.19
79671;BME280;69137;50.878;8.050;2023-08-06T00:47:45;97329.53;;;13.88;87.95
79671;BME280;69137;50.878;8.050;2023-08-06T00:50:11;97334.34;;;13.82;88.15
79671;BME280;69137;50.878;8.050;2023-08-06T00:52:37;97327.88;;;13.78;88.74
79671;BME280;69137;50.878;8.050;2023-08-06T00:55:03;97322.53;;;13.73;88.82
79671;BME280;69137;50.878;8.050;2023-08-06T00:57:29;97319.16;;;13.76;88.75
79671;BME280;69137;50.878;8.050;2023-08-06T00:59:54;97322.69;;;13.76;89.04
79671;BME280;69137;50.878;8.050;2023-08-06T01:02:20;97313.09;;;13.65;89.64
79671;BME280;69137;50.878;8.050;2023-08-06T01:04:45;97314.72;;;13.66;89.83
79671;BME280;69137;50.878;8.050;2023-08-06T01:10:04;97313.16;;;13.74;90.29
79671;BME280;69137;50.878;8.050;2023-08-06T01:12:57;97306.06;;;13.73;90.85
79671;BME280;69137;50.878;8.050;2023-08-06T01:15:34;97309.59;;;13.73;90.49
79671;BME280;69137;50.878;8.050;2023-08-06T01:18:01;97305.72;;;13.74;90.57
79671;BME280;69137;50.878;8.050;2023-08-06T01:20:28;97308.28;;;13.71;90.87
79671;BME280;69137;50.878;8.050;2023-08-06T01:22:54;97296.81;;;13.69;91.15
79671;BME280;69137;50.878;8.050;2023-08-06T01:25:19;97301.66;;;13.72;91.06
79671;BME280;69137;50.878;8.050;2023-08-06T01:27:49;97296.88;;;13.77;90.65
79671;BME280;69137;50.878;8.050;2023-08-06T01:30:33;97288.56;;;13.69;90.94
79671;BME280;69137;50.878;8.050;2023-08-06T01:33:04;97289.47;;;13.78;90.95
79671;BME280;69137;50.878;8.050;2023-08-06T01:35:32;97290.38;;;13.73;91.08
79671;BME280;69137;50.878;8.050;2023-08-06T01:37:59;97288.16;;;13.75;91.02
79671;BME280;69137;50.878;8.050;2023-08-06T01:40:26;97277.84;;;13.81;90.92
79671;BME280;69137;50.878;8.050;2023-08-06T01:42:53;97270.59;;;13.85;90.27
79671;BME280;69137;50.878;8.050;2023-08-06T01:45:19;97280.59;;;13.81;90.60
79671;BME280;69137;50.878;8.050;2023-08-06T01:47:44;97279.28;;;13.79;90.89
79671;BME280;69137;50.878;8.050;2023-08-06T01:50:10;97291.06;;;13.79;90.73
79671;BME280;69137;50.878;8.050;2023-08-06T01:52:35;97283.03;;;13.83;90.60
79671;BME280;69137;50.878;8.050;2023-08-06T01:55:00;97278.16;;;13.80;90.94
79671;BME280;69137;50.878;8.050;2023-08-06T01:57:26;97271.84;;;13.79;91.41
79671;BME280;69137;50.878;8.050;2023-08-06T01:59:51;97270.78;;;13.89;90.49
79671;BME280;69137;50.878;8.050;2023-08-06T02:02:17;97279.81;;;13.89;90.80
79671;BME280;69137;50.878;8.050;2023-08-06T02:04:42;97286.59;;;13.83;90.95
79671;BME280;69137;50.878;8.050;2023-08-06T02:07:07;97277.03;;;13.81;91.27
79671;BME280;69137;50.878;8.050;2023-08-06T02:09:33;97269.59;;;13.81;91.21
79671;BME280;69137;50.878;8.050;2023-08-06T02:12:00;97273.97;;;13.82;91.19
79671;BME280;69137;50.878;8.050;2023-08-06T02:14:26;97260.22;;;13.82;91.35
79671;BME280;69137;50.878;8.050;2023-08-06T02:16:51;97261.25;;;13.86;91.01
79671;BME280;69137;50.878;8.050;2023-08-06T02:19:16;97261.91;;;13.92;90.36
79671;BME280;69137;50.878;8.050;2023-08-06T02:21:42;97260.16;;;13.96;90.42
79671;BME280;69137;50.878;8.050;2023-08-06T02:24:07;97262.06;;;13.95;90.30
79671;BME280;69137;50.878;8.050;2023-08-06T02:26:33;97252.72;;;13.96;90.06
79671;BME280;69137;50.878;8.050;2023-08-06T02:28:58;97250.63;;;13.93;90.26
79671;BME280;69137;50.878;8.050;2023-08-06T02:31:24;97241.88;;;13.91;90.81
79671;BME280;69137;50.878;8.050;2023-08-06T02:33:49;97241.88;;;13.91;90.56
79671;BME280;69137;50.878;8.050;2023-08-06T02:36:14;97241.69;;;13.88;90.99
79671;BME280;69137;50.878;8.050;2023-08-06T02:38:40;97240.75;;;13.92;90.59
79671;BME280;69137;50.878;8.050;2023-08-06T02:41:05;97236.41;;;13.91;90.43
79671;BME280;69137;50.878;8.050;2023-08-06T02:43:31;97230.38;;;13.81;91.11
79671;BME280;69137;50.878;8.050;2023-08-06T02:46:00;97227.00;;;13.84;91.49
79671;BME280;69137;50.878;8.050;2023-08-06T02:48:26;97235.91;;;13.89;91.62
79671;BME280;69137;50.878;8.050;2023-08-06T02:50:51;97230.94;;;14.00;90.87
79671;BME280;69137;50.878;8.050;2023-08-06T02:53:16;97225.44;;;14.00;91.09
79671;BME280;69137;50.878;8.050;2023-08-06T02:55:48;97228.97;;;13.92;91.49
79671;BME280;69137;50.878;8.050;2023-08-06T02:58:14;97221.88;;;13.91;91.04
79671;BME280;69137;50.878;8.050;2023-08-06T03:00:40;97217.81;;;13.88;91.21
79671;BME280;69137;50.878;8.050;2023-08-06T03:03:06;97213.44;;;13.87;90.83
79671;BME280;69137;50.878;8.050;2023-08-06T03:05:31;97214.09;;;13.93;90.67
79671;BME280;69137;50.878;8.050;2023-08-06T03:07:56;97204.91;;;13.89;91.40
79671;BME280;69137;50.878;8.050;2023-08-06T03:10:22;97204.75;;;13.94;91.33
79671;BME280;69137;50.878;8.050;2023-08-06T03:12:47;97194.06;;;13.92;90.77
79671;BME280;69137;50.878;8.050;2023-08-06T03:15:13;97197.31;;;13.94;90.76
79671;BME280;69137;50.878;8.050;2023-08-06T03:17:38;97188.22;;;13.85;90.96
79671;BME280;69137;50.878;8.050;2023-08-06T03:20:04;97187.91;;;13.87;91.60
79671;BME280;69137;50.878;8.050;2023-08-06T03:22:30;97186.63;;;13.84;91.66
79671;BME280;69137;50.878;8.050;2023-08-06T03:24:55;97186.75;;;13.79;91.88
79671;BME280;69137;50.878;8.050;2023-08-06T03:27:20;97184.78;;;13.71;91.95
79671;BME280;69137;50.878;8.050;2023-08-06T03:29:49;97179.66;;;13.78;91.30
79671;BME280;69137;50.878;8.050;2023-08-06T03:32:15;97182.41;;;13.78;91.30
79671;BME280;69137;50.878;8.050;2023-08-06T03:34:40;97189.19;;;13.81;91.62
79671;BME280;69137;50.878;8.050;2023-08-06T03:37:06;97190.16;;;13.85;91.61
79671;BME280;69137;50.878;8.050;2023-08-06T03:39:31;97181.91;;;13.76;92.10
79671;BME280;69137;50.878;8.050;2023-08-06T03:41:56;97190.63;;;13.78;92.36
79671;BME280;69137;50.878;8.050;2023-08-06T03:44:22;97181.47;;;13.83;92.93
79671;BME280;69137;50.878;8.050;2023-08-06T03:46:47;97192.09;;;13.84;93.35
79671;BME280;69137;50.878;8.050;2023-08-06T03:49:12;97180.50;;;13.87;93.33
79671;BME280;69137;50.878;8.050;2023-08-06T03:51:38;97177.09;;;13.90;93.07
79671;BME280;69137;50.878;8.050;2023-08-06T03:54:03;97167.25;;;13.81;91.41
79671;BME280;69137;50.878;8.050;2023-08-06T03:56:29;97171.16;;;13.88;91.76
79671;BME280;69137;50.878;8.050;2023-08-06T03:58:54;97167.91;;;13.86;91.54
79671;BME280;69137;50.878;8.050;2023-08-06T04:01:19;97168.25;;;13.93;91.93
79671;BME280;69137;50.878;8.050;2023-08-06T04:03:45;97167.13;;;13.94;92.27
79671;BME280;69137;50.878;8.050;2023-08-06T04:06:10;97166.81;;;13.96;92.56
79671;BME280;69137;50.878;8.050;2023-08-06T04:08:36;97164.34;;;13.86;92.33
79671;BME280;69137;50.878;8.050;2023-08-06T04:11:01;97177.31;;;13.94;91.81
79671;BME280;69137;50.878;8.050;2023-08-06T04:13:27;97165.78;;;13.83;91.87
79671;BME280;69137;50.878;8.050;2023-08-06T04:15:52;97166.44;;;13.80;91.46
79671;BME280;69137;50.878;8.050;2023-08-06T04:18:18;97167.53;;;13.79;91.81
79671;BME280;69137;50.878;8.050;2023-08-06T04:20:45;97159.66;;;13.86;91.96
79671;BME280;69137;50.878;8.050;2023-08-06T04:23:10;97156.59;;;13.88;91.87
79671;BME280;69137;50.878;8.050;2023-08-06T04:25:36;97158.38;;;13.92;91.47
79671;BME280;69137;50.878;8.050;2023-08-06T04:28:01;97157.78;;;14.04;91.24
79671;BME280;69137;50.878;8.050;2023-08-06T04:30:27;97156.13;;;13.94;91.80
79671;BME280;69137;50.878;8.050;2023-08-06T04:32:52;97154.81;;;13.83;91.62
79671;BME280;69137;50.878;8.050;2023-08-06T04:35:17;97148.84;;;13.90;92.18
79671;BME280;69137;50.878;8.050;2023-08-06T04:37:43;97153.53;;;13.89;91.63
79671;BME280;69137;50.878;8.050;2023-08-06T04:40:09;97157.75;;;13.95;91.07
79671;BME280;69137;50.878;8.050;2023-08-06T04:42:34;97161.63;;;13.94;90.96
79671;BME280;69137;50.878;8.050;2023-08-06T04:45:01;97153.88;;;13.96;90.88
79671;BME280;69137;50.878;8.050;2023-08-06T04:47:27;97157.75;;;13.95;90.75
79671;BME280;69137;50.878;8.050;2023-08-06T04:49:53;97154.84;;;14.01;90.13
79671;BME280;69137;50.878;8.050;2023-08-06T04:52:18;97153.44;;;14.12;89.54
79671;BME280;69137;50.878;8.050;2023-08-06T04:54:44;97154.41;;;14.07;90.01
79671;BME280;69137;50.878;8.050;2023-08-06T04:57:09;97161.66;;;14.03;89.97
79671;BME280;69137;50.878;8.050;2023-08-06T04:59:35;97170.09;;;14.15;89.45
79671;BME280;69137;50.878;8.050;2023-08-06T05:02:01;97166.03;;;14.13;90.00
79671;BME280;69137;50.878;8.050;2023-08-06T05:04:27;97156.50;;;14.10;90.15
79671;BME280;69137;50.878;8.050;2023-08-06T05:06:52;97163.63;;;14.11;91.11
79671;BME280;69137;50.878;8.050;2023-08-06T05:09:18;97163.28;;;14.13;91.51
79671;BME280;69137;50.878;8.050;2023-08-06T05:11:43;97160.41;;;14.27;91.12
79671;BME280;69137;50.878;8.050;2023-08-06T05:14:09;97156.72;;;14.31;89.95
79671;BME280;69137;50.878;8.050;2023-08-06T05:16:34;97166.59;;;14.41;90.43
79671;BME280;69137;50.878;8.050;2023-08-06T05:19:00;97156.91;;;14.52;90.62
79671;BME280;69137;50.878;8.050;2023-08-06T05:21:25;97164.56;;;14.64;89.29
79671;BME280;69137;50.878;8.050;2023-08-06T05:23:50;97164.56;;;14.55;89.61
79671;BME280;69137;50.878;8.050;2023-08-06T05:26:16;97159.34;;;14.45;89.40
79671;BME280;69137;50.878;8.050;2023-08-06T05:28:44;97161.09;;;14.41;89.56
79671;BME280;69137;50.878;8.050;2023-08-06T05:31:10;97164.50;;;14.38;89.57
79671;BME280;69137;50.878;8.050;2023-08-06T05:33:35;97156.91;;;14.43;88.93
79671;BME280;69137;50.878;8.050;2023-08-06T05:36:00;97162.41;;;14.35;89.12
79671;BME280;69137;50.878;8.050;2023-08-06T05:38:26;97164.81;;;14.36;89.60
79671;BME280;69137;50.878;8.050;2023-08-06T05:40:52;97167.41;;;14.33;89.43
79671;BME280;69137;50.878;8.050;2023-08-06T05:43:17;97171.28;;;14.40;89.36
79671;BME280;69137;50.878;8.050;2023-08-06T05:45:46;97173.09;;;14.45;88.87
79671;BME280;69137;50.878;8.050;2023-08-06T05:48:12;97171.78;;;14.42;89.17
79671;BME280;69137;50.878;8.050;2023-08-06T05:50:37;97168.03;;;14.38;89.43
79671;BME280;69137;50.878;8.050;2023-08-06T05:53:02;97169.19;;;14.37;90.48
79671;BME280;69137;50.878;8.050;2023-08-06T05:55:28;97175.47;;;14.38;90.16
79671;BME280;69137;50.878;8.050;2023-08-06T05:57:54;97174.84;;;14.32;90.70
79671;BME280;69137;50.878;8.050;2023-08-06T06:00:21;97173.69;;;14.33;91.57
79671;BME280;69137;50.878;8.050;2023-08-06T06:02:46;97172.25;;;14.45;90.89
79671;BME280;69137;50.878;8.050;2023-08-06T06:05:12;97170.31;;;14.36;91.31
79671;BME280;69137;50.878;8.050;2023-08-06T06:07:37;97175.31;;;14.34;91.25
79671;BME280;69137;50.878;8.050;2023-08-06T06:10:03;97174.16;;;14.27;91.02
79671;BME280;69137;50.878;8.050;2023-08-06T06:12:28;97169.31;;;14.24;91.11
79671;BME280;69137;50.878;8.050;2023-08-06T06:14:54;97171.25;;;14.32;90.21
79671;BME280;69137;50.878;8.050;2023-08-06T06:17:19;97169.50;;;14.45;89.75
79671;BME280;69137;50.878;8.050;2023-08-06T06:19:45;97168.25;;;14.51;89.51
79671;BME280;69137;50.878;8.050;2023-08-06T06:22:10;97163.25;;;14.53;90.29
79671;BME280;69137;50.878;8.050;2023-08-06T06:24:35;97166.34;;;14.69;89.29
79671;BME280;69137;50.878;8.050;2023-08-06T06:27:01;97173.94;;;15.06;87.85
79671;BME280;69137;50.878;8.050;2023-08-06T06:29:27;97167.59;;;15.15;87.66
79671;BME280;69137;50.878;8.050;2023-08-06T06:31:52;97178.59;;;15.15;88.12
79671;BME280;69137;50.878;8.050;2023-08-06T06:34:17;97174.06;;;15.27;87.24
79671;BME280;69137;50.878;8.050;2023-08-06T06:36:43;97172.41;;;15.52;85.77
79671;BME280;69137;50.878;8.050;2023-08-06T06:39:08;97174.34;;;15.69;86.29
79671;BME280;69137;50.878;8.050;2023-08-06T06:41:34;97176.69;;;15.88;85.83
79671;BME280;69137;50.878;8.050;2023-08-06T06:43:59;97171.56;;;16.16;84.47
79671;BME280;69137;50.878;8.050;2023-08-06T06:46:24;97165.03;;;16.21;83.72
79671;BME280;69137;50.878;8.050;2023-08-06T06:48:50;97161.88;;;16.31;84.64
79671;BME280;69137;50.878;8.050;2023-08-06T06:51:15;97159.59;;;16.33;82.88
79671;BME280;69137;50.878;8.050;2023-08-06T06:53:41;97152.59;;;16.15;83.33
79671;BME280;69137;50.878;8.050;2023-08-06T06:56:06;97160.91;;;16.06;83.23
79671;BME280;69137;50.878;8.050;2023-08-06T06:58:32;97166.34;;;15.85;82.94
79671;BME280;69137;50.878;8.050;2023-08-06T07:00:58;97166.19;;;15.82;83.89
79671;BME280;69137;50.878;8.050;2023-08-06T07:03:23;97164.22;;;15.82;83.70
79671;BME280;69137;50.878;8.050;2023-08-06T07:05:49;97160.19;;;15.80;84.69
79671;BME280;69137;50.878;8.050;2023-08-06T07:08:15;97164.91;;;15.79;83.97
79671;BME280;69137;50.878;8.050;2023-08-06T07:10:41;97171.38;;;15.83;84.26
79671;BME280;69137;50.878;8.050;2023-08-06T07:13:08;97168.97;;;15.73;83.95
79671;BME280;69137;50.878;8.050;2023-08-06T07:15:34;97157.97;;;15.56;84.16
79671;BME280;69137;50.878;8.050;2023-08-06T07:18:00;97166.53;;;15.63;85.44
79671;BME280;69137;50.878;8.050;2023-08-06T07:20:26;97164.59;;;15.63;84.88
79671;BME280;69137;50.878;8.050;2023-08-06T07:22:54;97171.44;;;15.48;84.74
79671;BME280;69137;50.878;8.050;2023-08-06T07:25:19;97164.28;;;15.73;83.68
79671;BME280;69137;50.878;8.050;2023-08-06T07:27:45;97166.81;;;15.87;83.32
79671;BME280;69137;50.878;8.050;2023-08-06T07:30:10;97165.81;;;15.92;83.67
79671;BME280;69137;50.878;8.050;2023-08-06T07:32:36;97160.75;;;16.03;84.33
79671;BME280;69137;50.878;8.050;2023-08-06T07:35:02;97168.69;;;16.04;82.92
79671;BME280;69137;50.878;8.050;2023-08-06T07:37:28;97161.16;;;16.13;80.11
79671;BME280;69137;50.878;8.050;2023-08-06T07:39:56;97162.44;;;16.25;81.79
79671;BME280;69137;50.878;8.050;2023-08-06T07:42:22;97161.66;;;16.45;80.58
79671;BME280;69137;50.878;8.050;2023-08-06T07:44:55;97165.09;;;16.42;82.09
79671;BME280;69137;50.878;8.050;2023-08-06T07:47:21;97162.88;;;16.56;82.04
79671;BME280;69137;50.878;8.050;2023-08-06T07:49:46;97167.03;;;16.63;81.34
79671;BME280;69137;50.878;8.050;2023-08-06T07:52:12;97158.91;;;16.45;81.27
79671;BME280;69137;50.878;8.050;2023-08-06T07:54:37;97164.53;;;16.49;81.26
79671;BME280;69137;50.878;8.050;2023-08-06T07:57:03;97166.47;;;16.27;83.82
79671;BME280;69137;50.878;8.050;2023-08-06T07:59:28;97166.16;;;16.20;85.45
79671;BME280;69137;50.878;8.050;2023-08-06T08:01:54;97163.28;;;16.16;84.93
79671;BME280;69137;50.878;8.050;2023-08-06T08:04:19;97165.16;;;15.95;85.88
79671;BME280;69137;50.878;8.050;2023-08-06T08:06:46;97171.38;;;15.83;86.31
79671;BME280;69137;50.878;8.050;2023-08-06T08:09:12;97162.75;;;15.85;86.35
79671;BME280;69137;50.878;8.050;2023-08-06T08:11:38;97162.75;;;15.85;85.56
79671;BME280;69137;50.878;8.050;2023-08-06T08:14:04;97160.66;;;15.82;86.72
79671;BME280;69137;50.878;8.050;2023-08-06T08:16:29;97158.75;;;15.73;87.08
79671;BME280;69137;50.878;8.050;2023-08-06T08:18:55;97161.88;;;15.72;87.20
79671;BME280;69137;50.878;8.050;2023-08-06T08:21:20;97158.75;;;15.73;87.26
79671;BME280;69137;50.878;8.050;2023-08-06T08:23:45;97153.56;;;15.81;88.17
79671;BME280;69137;50.878;8.050;2023-08-06T08:26:13;97155.78;;;15.87;88.56
79671;BME280;69137;50.878;8.050;2023-08-06T08:28:38;97154.84;;;15.75;89.04
79671;BME280;69137;50.878;8.050;2023-08-06T08:31:08;97161.72;;;15.60;87.96
79671;BME280;69137;50.878;8.050;2023-08-06T08:33:34;97167.66;;;15.79;88.86
79671;BME280;69137;50.878;8.050;2023-08-06T08:36:00;97158.53;;;15.87;87.86
79671;BME280;69137;50.878;8.050;2023-08-06T08:38:25;97159.00;;;15.98;87.09
79671;BME280;69137;50.878;8.050;2023-08-06T08:40:52;97160.75;;;16.03;86.48
79671;BME280;69137;50.878;8.050;2023-08-06T08:43:21;97157.91;;;15.90;86.31
79671;BME280;69137;50.878;8.050;2023-08-06T08:45:46;97153.06;;;15.79;87.11
79671;BME280;69137;50.878;8.050;2023-08-06T08:48:15;97157.81;;;15.69;87.43
79671;BME280;69137;50.878;8.050;2023-08-06T08:50:46;97163.91;;;15.84;86.98
79671;BME280;69137;50.878;8.050;2023-08-06T08:53:14;97160.56;;;15.61;87.44
79671;BME280;69137;50.878;8.050;2023-08-06T08:55:42;97158.78;;;15.65;87.76
79671;BME280;69137;50.878;8.050;2023-08-06T08:58:08;97164.41;;;15.68;88.35
79671;BME280;69137;50.878;8.050;2023-08-06T09:00:33;97165.88;;;15.83;87.79
79671;BME280;69137;50.878;8.050;2023-08-06T09:03:00;97169.72;;;15.91;85.42
79671;BME280;69137;50.878;8.050;2023-08-06T09:05:28;97168.75;;;15.87;86.45
79671;BME280;69137;50.878;8.050;2023-08-06T09:08:03;97166.84;;;16.17;84.54
79671;BME280;69137;50.878;8.050;2023-08-06T09:10:29;97167.44;;;16.23;85.47
79671;BME280;69137;50.878;8.050;2023-08-06T09:12:56;97173.94;;;16.27;86.30
79671;BME280;69137;50.878;8.050;2023-08-06T09:15:26;97171.00;;;16.23;85.62
79671;BME280;69137;50.878;8.050;2023-08-06T09:17:53;97172.28;;;16.26;84.51
79671;BME280;69137;50.878;8.050;2023-08-06T09:20:19;97170.03;;;16.28;82.88
79671;BME280;69137;50.878;8.050;2023-08-06T09:22:44;97170.97;;;16.32;84.19
79671;BME280;69137;50.878;8.050;2023-08-06T09:25:11;97174.16;;;16.43;83.36
79671;BME280;69137;50.878;8.050;2023-08-06T09:27:39;97187.34;;;16.58;84.01
79671;BME280;69137;50.878;8.050;2023-08-06T09:30:05;97189.63;;;16.56;82.81
79671;BME280;69137;50.878;8.050;2023-08-06T09:32:48;97186.63;;;16.70;81.46
79671;BME280;69137;50.878;8.050;2023-08-06T09:35:19;97195.38;;;16.72;81.48
79671;BME280;69137;50.878;8.050;2023-08-06T09:37:44;97198.19;;;16.63;82.53
79671;BME280;69137;50.878;8.050;2023-08-06T09:42:51;97195.06;;;16.44;80.20
79671;BME280;69137;50.878;8.050;2023-08-06T09:45:17;97188.75;;;16.43;81.07
79671;BME280;69137;50.878;8.050;2023-08-06T09:47:42;97187.25;;;16.46;80.52
79671;BME280;69137;50.878;8.050;2023-08-06T09:50:20;97199.34;;;16.32;82.65
79671;BME280;69137;50.878;8.050;2023-08-06T09:52:50;97186.88;;;15.97;83.74
79671;BME280;69137;50.878;8.050;2023-08-06T09:55:17;97199.84;;;15.96;82.62
79671;BME280;69137;50.878;8.050;2023-08-06T09:57:43;97190.13;;;15.90;84.44
79671;BME280;69137;50.878;8.050;2023-08-06T10:00:10;97194.69;;;15.86;83.20
79671;BME280;69137;50.878;8.050;2023-08-06T10:02:40;97198.25;;;15.86;83.42
79671;BME280;69137;50.878;8.050;2023-08-06T10:05:07;97203.78;;;15.78;82.90
79671;BME280;69137;50.878;8.050;2023-08-06T10:07:33;97203.31;;;15.76;84.11
79671;BME280;69137;50.878;8.050;2023-08-06T10:09:59;97188.50;;;15.89;83.52
79671;BME280;69137;50.878;8.050;2023-08-06T10:12:28;97205.19;;;15.92;84.20
79671;BME280;69137;50.878;8.050;2023-08-06T10:14:57;97203.34;;;16.05;82.63
79671;BME280;69137;50.878;8.050;2023-08-06T10:17:22;97196.97;;;16.13;82.06
79671;BME280;69137;50.878;8.050;2023-08-06T10:19:50;97204.06;;;16.32;81.63
79671;BME280;69137;50.878;8.050;2023-08-06T10:22:17;97198.41;;;16.49;82.49
79671;BME280;69137;50.878;8.050;2023-08-06T10:24:57;97198.59;;;16.53;81.25
79671;BME280;69137;50.878;8.050;2023-08-06T10:30:43;97199.53;;;16.87;79.21
79671;BME280;69137;50.878;8.050;2023-08-06T10:33:09;97195.59;;;16.88;80.26
79671;BME280;69137;50.878;8.050;2023-08-06T10:35:40;97188.53;;;16.99;79.66
79671;BME280;69137;50.878;8.050;2023-08-06T10:38:14;97189.06;;;17.13;77.46
79671;BME280;69137;50.878;8.050;2023-08-06T10:40:47;97192.25;;;17.03;78.19
79671;BME280;69137;50.878;8.050;2023-08-06T10:43:33;97194.41;;;16.97;78.89
79671;BME280;69137;50.878;8.050;2023-08-06T10:46:01;97197.44;;;17.05;78.39
79671;BME280;69137;50.878;8.050;2023-08-06T10:48:32;97201.47;;;17.07;78.24
79671;BME280;69137;50.878;8.050;2023-08-06T10:50:59;97200.22;;;17.17;77.94
79671;BME280;69137;50.878;8.050;2023-08-06T10:53:25;97200.16;;;17.25;76.75
79671;BME280;69137;50.878;8.050;2023-08-06T10:55:50;97197.25;;;17.22;77.24
79671;BME280;69137;50.878;8.050;2023-08-06T10:58:16;97194.09;;;17.32;76.84
79671;BME280;69137;50.878;8.050;2023-08-06T11:00:42;97196.56;;;17.25;75.94
79671;BME280;69137;50.878;8.050;2023-08-06T11:03:08;97196.25;;;17.60;77.44
79671;BME280;69137;50.878;8.050;2023-08-06T11:05:34;97182.19;;;17.86;75.80
79671;BME280;69137;50.878;8.050;2023-08-06T11:07:59;97193.03;;;18.40;75.95
79671;BME280;69137;50.878;8.050;2023-08-06T11:10:24;97187.16;;;18.42;73.14
79671;BME280;69137;50.878;8.050;2023-08-06T11:12:50;97192.44;;;18.47;73.51
79671;BME280;69137;50.878;8.050;2023-08-06T11:15:16;97177.03;;;18.33;72.56
79671;BME280;69137;50.878;8.050;2023-08-06T11:17:41;97191.44;;;18.27;71.65
79671;BME280;69137;50.878;8.050;2023-08-06T11:20:08;97188.19;;;18.12;72.74
79671;BME280;69137;50.878;8.050;2023-08-06T11:22:35;97182.09;;;18.19;72.17
79671;BME280;69137;50.878;8.050;2023-08-06T11:25:01;97189.44;;;18.03;72.88
79671;BME280;69137;50.878;8.050;2023-08-06T11:27:27;97190.59;;;17.89;74.01
79671;BME280;69137;50.878;8.050;2023-08-06T11:29:55;97194.34;;;17.73;74.68
79671;BME280;69137;50.878;8.050;2023-08-06T11:32:21;97187.50;;;17.58;76.06
79671;BME280;69137;50.878;8.050;2023-08-06T11:34:46;97187.47;;;17.45;75.62
79671;BME280;69137;50.878;8.050;2023-08-06T11:37:12;97193.75;;;17.34;75.63
79671;BME280;69137;50.878;8.050;2023-08-06T11:39:38;97194.78;;;17.29;76.16
79671;BME280;69137;50.878;8.050;2023-08-06T11:42:07;97197.06;;;17.27;75.23
79671;BME280;69137;50.878;8.050;2023-08-06T11:44:34;97198.84;;;17.44;74.94
79671;BME280;69137;50.878;8.050;2023-08-06T11:47:01;97202.25;;;17.74;75.53
79671;BME280;69137;50.878;8.050;2023-08-06T11:49:41;97199.09;;;17.84;74.10
79671;BME280;69137;50.878;8.050;2023-08-06T11:52:29;97200.72;;;17.85;74.86
79671;BME280;69137;50.878;8.050;2023-08-06T11:55:05;97199.00;;;17.93;75.48
79671;BME280;69137;50.878;8.050;2023-08-06T11:57:33;97205.13;;;17.99;77.52
79671;BME280;69137;50.878;8.050;2023-08-06T12:00:06;97211.72;;;17.73;77.26
79671;BME280;69137;50.878;8.050;2023-08-06T12:02:33;97214.63;;;17.56;81.29
79671;BME280;69137;50.878;8.050;2023-08-06T12:05:13;97220.63;;;17.03;81.95
79671;BME280;69137;50.878;8.050;2023-08-06T12:07:45;97221.00;;;16.72;82.64
79671;BME280;69137;50.878;8.050;2023-08-06T12:10:12;97231.25;;;16.42;82.40
79671;BME280;69137;50.878;8.050;2023-08-06T12:12:38;97236.53;;;16.17;83.28
79671;BME280;69137;50.878;8.050;2023-08-06T12:15:04;97251.19;;;15.92;85.06
79671;BME280;69137;50.878;8.050;2023-08-06T12:17:31;97269.56;;;15.18;88.99
79671;BME280;69137;50.878;8.050;2023-08-06T12:19:57;97280.66;;;14.70;92.78
79671;BME280;69137;50.878;8.050;2023-08-06T12:22:22;97272.03;;;14.54;92.06
79671;BME280;69137;50.878;8.050;2023-08-06T12:24:48;97287.31;;;14.37;91.08
79671;BME280;69137;50.878;8.050;2023-08-06T12:27:13;97289.00;;;14.16;92.30
79671;BME280;69137;50.878;8.050;2023-08-06T12:29:44;97290.38;;;13.96;93.21
79671;BME280;69137;50.878;8.050;2023-08-06T12:32:11;97291.31;;;13.91;93.42
79671;BME280;69137;50.878;8.050;2023-08-06T12:34:41;97300.97;;;13.89;93.00
79671;BME280;69137;50.878;8.050;2023-08-06T12:37:07;97299.72;;;13.95;92.84
79671;BME280;69137;50.878;8.050;2023-08-06T12:39:33;97316.09;;;13.77;93.40
79671;BME280;69137;50.878;8.050;2023-08-06T12:42:04;97312.38;;;13.82;93.29
79671;BME280;69137;50.878;8.050;2023-08-06T12:44:30;97321.13;;;13.84;93.29
79671;BME280;69137;50.878;8.050;2023-08-06T12:46:56;97317.25;;;13.85;93.73
79671;BME280;69137;50.878;8.050;2023-08-06T12:49:23;97328.81;;;13.96;93.27
79671;BME280;69137;50.878;8.050;2023-08-06T12:51:50;97333.25;;;13.83;93.30
79671;BME280;69137;50.878;8.050;2023-08-06T12:54:21;97345.53;;;13.86;93.38
79671;BME280;69137;50.878;8.050;2023-08-06T12:56:47;97336.63;;;13.80;93.40
79671;BME280;69137;50.878;8.050;2023-08-06T12:59:14;97339.53;;;13.61;91.56
79671;BME280;69137;50.878;8.050;2023-08-06T13:01:41;97350.63;;;13.56;93.65
79671;BME280;69137;50.878;8.050;2023-08-06T13:04:06;97355.38;;;13.42;92.89
79671;BME280;69137;50.878;8.050;2023-08-06T13:06:32;97357.09;;;13.38;92.11